createdAt,value
2023-01-13T00:00:30.558Z,3.69
2023-01-13T00:03:18.480Z,3.67
2023-01-13T00:05:46.372Z,3.67
2023-01-13T00:08:14.231Z,3.67
2023-01-13T00:10:42.543Z,3.67
2023-01-13T00:13:10.718Z,3.67
2023-01-13T00:15:38.715Z,3.67
2023-01-13T00:18:06.964Z,3.66
2023-01-13T00:20:34.878Z,3.65
2023-01-13T00:23:04.415Z,3.63
2023-01-13T00:25:32.862Z,3.62
2023-01-13T00:28:00.860Z,3.61
2023-01-13T00:30:29.168Z,3.59
2023-01-13T00:32:57.166Z,3.57
2023-01-13T00:35:25.105Z,3.55
2023-01-13T00:37:52.943Z,3.55
2023-01-13T00:40:20.892Z,3.51
2023-01-13T00:43:07.657Z,3.52
2023-01-13T00:45:35.528Z,3.50
2023-01-13T00:48:03.509Z,3.49
2023-01-13T00:50:31.525Z,3.48
2023-01-13T00:53:00.757Z,3.47
2023-01-13T00:55:32.284Z,3.45
2023-01-13T00:58:03.484Z,3.43
2023-01-13T01:00:32.889Z,3.42
2023-01-13T01:03:01.153Z,3.41
2023-01-13T01:05:29.410Z,3.40
2023-01-13T01:07:57.427Z,3.38
2023-01-13T01:10:25.658Z,3.37
2023-01-13T01:12:53.627Z,3.34
2023-01-13T01:15:21.704Z,3.32
2023-01-13T01:17:49.985Z,3.31
2023-01-13T01:20:18.157Z,3.30
2023-01-13T01:22:46.163Z,3.29
2023-01-13T01:25:14.108Z,3.28
2023-01-13T01:27:41.943Z,3.27
2023-01-13T01:30:10.886Z,3.27
2023-01-13T01:32:38.818Z,3.25
2023-01-13T01:35:07.189Z,3.24
2023-01-13T01:37:35.065Z,3.22
2023-01-13T01:40:03.207Z,3.19
2023-01-13T01:42:50.014Z,3.18
2023-01-13T01:45:22.711Z,3.17
2023-01-13T01:47:57.480Z,3.17
2023-01-13T01:50:26.336Z,3.15
2023-01-13T01:53:00.051Z,3.15
2023-01-13T01:55:31.401Z,3.14
2023-01-13T01:58:09.457Z,3.14
2023-01-13T02:00:37.379Z,3.13
2023-01-13T02:03:07.457Z,3.12
2023-01-13T02:05:35.936Z,3.11
2023-01-13T02:08:04.279Z,3.11
2023-01-13T02:10:32.971Z,3.11
2023-01-13T02:13:04.921Z,3.10
2023-01-13T02:15:59.126Z,3.09
2023-01-13T02:19:01.536Z,3.09
2023-01-13T02:21:46.400Z,3.08
2023-01-13T02:24:55.134Z,3.09
2023-01-13T02:27:54.618Z,3.09
2023-01-13T02:31:00.213Z,3.09
2023-01-13T02:33:34.403Z,3.07
2023-01-13T02:36:05.232Z,3.10
2023-01-13T02:38:37.433Z,3.11
2023-01-13T02:41:38.062Z,3.11
2023-01-13T02:44:07.793Z,3.12
2023-01-13T02:46:46.801Z,3.13
2023-01-13T02:49:24.714Z,3.13
2023-01-13T02:51:55.037Z,3.14
2023-01-13T02:54:27.890Z,3.16
2023-01-13T02:56:58.237Z,3.17
2023-01-13T02:59:28.334Z,3.18
2023-01-13T03:01:58.321Z,3.20
2023-01-13T03:04:55.948Z,3.21
2023-01-13T03:07:44.337Z,3.22
2023-01-13T03:10:39.812Z,3.22
2023-01-13T03:13:46.216Z,3.22
2023-01-13T03:16:23.880Z,3.22
2023-01-13T03:19:16.143Z,3.22
2023-01-13T03:21:44.092Z,3.23
2023-01-13T03:24:17.988Z,3.24
2023-01-13T03:26:56.834Z,3.25
2023-01-13T03:29:37.172Z,3.26
2023-01-13T03:32:33.207Z,3.27
2023-01-13T03:35:25.953Z,3.27
2023-01-13T03:38:02.935Z,3.28
2023-01-13T03:40:36.252Z,3.30
2023-01-13T03:43:32.702Z,3.31
2023-01-13T03:46:09.679Z,3.33
2023-01-13T03:48:42.060Z,3.32
2023-01-13T03:51:15.010Z,3.32
2023-01-13T03:53:51.462Z,3.31
2023-01-13T03:56:28.186Z,3.33
2023-01-13T03:58:59.065Z,3.33
2023-01-13T04:01:35.272Z,3.33
2023-01-13T04:04:09.452Z,3.34
2023-01-13T04:06:38.359Z,3.34
2023-01-13T04:09:24.661Z,3.35
2023-01-13T04:12:04.112Z,3.36
2023-01-13T04:14:32.337Z,3.38
2023-01-13T04:17:00.341Z,3.39
2023-01-13T04:19:28.517Z,3.39
2023-01-13T04:21:56.503Z,3.40
2023-01-13T04:24:25.790Z,3.41
2023-01-13T04:26:53.932Z,3.41
2023-01-13T04:29:22.341Z,3.42
2023-01-13T04:31:50.531Z,3.42
2023-01-13T04:34:18.482Z,3.42
2023-01-13T04:36:46.534Z,3.42
2023-01-13T04:39:14.489Z,3.42
2023-01-13T04:41:57.964Z,3.42
2023-01-13T04:44:27.425Z,3.42
2023-01-13T04:46:55.437Z,3.42
2023-01-13T04:49:23.294Z,3.42
2023-01-13T04:51:51.187Z,3.42
2023-01-13T04:54:19.561Z,3.41
2023-01-13T04:56:47.515Z,3.41
2023-01-13T04:59:15.329Z,3.40
2023-01-13T05:01:43.319Z,3.40
2023-01-13T05:04:11.834Z,3.38
2023-01-13T05:06:39.920Z,3.38
2023-01-13T05:09:07.880Z,3.39
2023-01-13T05:11:54.271Z,3.39
2023-01-13T05:14:40.882Z,3.39
2023-01-13T05:17:12.400Z,3.38
2023-01-13T05:19:42.660Z,3.38
2023-01-13T05:22:30.527Z,3.38
2023-01-13T05:25:17.777Z,3.38
2023-01-13T05:27:45.822Z,3.38
2023-01-13T05:30:14.168Z,3.38
2023-01-13T05:32:42.137Z,3.37
2023-01-13T05:35:10.106Z,3.37
2023-01-13T05:37:38.151Z,3.37
2023-01-13T05:40:25.615Z,3.36
2023-01-13T05:43:20.939Z,3.35
2023-01-13T05:46:02.093Z,3.32
2023-01-13T05:48:37.555Z,3.31
2023-01-13T05:51:07.673Z,3.31
2023-01-13T05:53:35.700Z,3.32
2023-01-13T05:56:05.524Z,3.32
2023-01-13T05:58:34.205Z,3.32
2023-01-13T06:01:07.440Z,3.34
2023-01-13T06:03:36.525Z,3.34
2023-01-13T06:06:05.009Z,3.35
2023-01-13T06:08:33.281Z,3.36
2023-01-13T06:11:01.145Z,3.36
2023-01-13T06:13:29.324Z,3.36
2023-01-13T06:15:59.152Z,3.35
2023-01-13T06:18:27.736Z,3.35
2023-01-13T06:20:56.683Z,3.34
2023-01-13T06:23:24.865Z,3.34
2023-01-13T06:25:58.490Z,3.35
2023-01-13T06:28:26.764Z,3.35
2023-01-13T06:31:03.594Z,3.36
2023-01-13T06:33:41.477Z,3.37
2023-01-13T06:36:17.286Z,3.38
2023-01-13T06:38:48.790Z,3.39
2023-01-13T06:41:17.848Z,3.41
2023-01-13T06:43:46.685Z,3.42
2023-01-13T06:46:14.606Z,3.42
2023-01-13T06:48:42.509Z,3.43
2023-01-13T06:51:10.537Z,3.45
2023-01-13T06:53:38.619Z,3.47
2023-01-13T06:56:06.986Z,3.48
2023-01-13T06:58:34.819Z,3.49
2023-01-13T07:01:02.936Z,3.51
2023-01-13T07:03:31.034Z,3.52
2023-01-13T07:05:59.850Z,3.54
2023-01-13T07:08:28.173Z,3.55
2023-01-13T07:10:56.143Z,3.58
2023-01-13T07:13:42.999Z,3.59
2023-01-13T07:16:11.079Z,3.62
2023-01-13T07:18:39.607Z,3.64
2023-01-13T07:21:10.066Z,3.68
2023-01-13T07:23:40.457Z,3.68
2023-01-13T07:26:10.374Z,3.71
2023-01-13T07:28:39.474Z,3.74
2023-01-13T07:31:18.250Z,3.78
2023-01-13T07:33:46.871Z,3.80
2023-01-13T07:36:15.374Z,3.82
2023-01-13T07:38:44.746Z,3.85
2023-01-13T07:41:32.907Z,3.88
2023-01-13T07:44:05.234Z,3.92
2023-01-13T07:46:34.655Z,3.96
2023-01-13T07:49:03.157Z,3.99
2023-01-13T07:51:31.248Z,4.02
2023-01-13T07:53:59.301Z,4.05
2023-01-13T07:56:27.242Z,4.08
2023-01-13T07:58:55.246Z,4.12
2023-01-13T08:01:23.379Z,4.13
2023-01-13T08:03:51.394Z,4.15
2023-01-13T08:06:19.660Z,4.17
2023-01-13T08:08:47.738Z,4.18
2023-01-13T08:11:15.705Z,4.21
2023-01-13T08:13:43.668Z,4.25
2023-01-13T08:16:14.160Z,4.30
2023-01-13T08:18:43.339Z,4.36
2023-01-13T08:21:14.376Z,4.42
2023-01-13T08:23:44.281Z,4.48
2023-01-13T08:26:16.009Z,4.53
2023-01-13T08:28:45.211Z,4.61
2023-01-13T08:31:17.022Z,4.69
2023-01-13T08:33:45.199Z,4.77
2023-01-13T08:36:14.071Z,4.86
2023-01-13T08:38:42.420Z,4.95
2023-01-13T08:41:36.384Z,5.05
2023-01-13T08:44:06.408Z,5.20
2023-01-13T08:46:34.520Z,5.34
2023-01-13T08:49:02.959Z,5.48
2023-01-13T08:51:30.955Z,5.61
2023-01-13T08:53:58.982Z,5.74
2023-01-13T08:56:26.856Z,5.91
2023-01-13T08:58:58.237Z,6.08
2023-01-13T09:01:27.159Z,6.26
2023-01-13T09:03:55.623Z,6.44
2023-01-13T09:06:23.764Z,6.62
2023-01-13T09:08:52.266Z,6.74
2023-01-13T09:11:47.969Z,6.81
2023-01-13T09:14:21.466Z,6.85
2023-01-13T09:16:49.722Z,6.87
2023-01-13T09:19:17.587Z,6.85
2023-01-13T09:21:45.583Z,6.86
2023-01-13T09:24:13.755Z,6.91
2023-01-13T09:26:41.929Z,6.98
2023-01-13T09:29:09.939Z,7.11
2023-01-13T09:31:38.068Z,7.36
2023-01-13T09:34:26.630Z,7.67
2023-01-13T09:36:55.006Z,7.81
2023-01-13T09:39:22.895Z,7.90
2023-01-13T09:42:13.368Z,8.02
2023-01-13T09:44:58.597Z,8.27
2023-01-13T09:47:39.133Z,9.51
2023-01-13T09:50:34.126Z,10.82
2023-01-13T09:53:02.257Z,12.00
2023-01-13T09:55:36.579Z,12.91
2023-01-13T09:58:16.916Z,13.66
2023-01-13T10:00:57.633Z,14.59
2023-01-13T10:03:30.015Z,16.34
2023-01-13T10:06:35.147Z,17.31
2023-01-13T10:09:03.317Z,18.95
2023-01-13T10:11:59.140Z,20.60
2023-01-13T10:14:50.521Z,22.34
2023-01-13T10:17:18.431Z,23.59
2023-01-13T10:20:17.705Z,24.28
2023-01-13T10:22:49.870Z,24.91
2023-01-13T10:25:32.467Z,25.19
2023-01-13T10:28:11.110Z,25.26
2023-01-13T10:30:42.510Z,25.06
2023-01-13T10:33:13.519Z,24.72
2023-01-13T10:35:57.559Z,24.07
2023-01-13T10:38:34.650Z,23.12
2023-01-13T10:41:06.333Z,22.40
2023-01-13T10:43:34.227Z,21.67
2023-01-13T10:46:16.538Z,21.01
2023-01-13T10:48:58.966Z,20.29
2023-01-13T10:51:26.962Z,19.52
2023-01-13T10:53:59.128Z,19.06
2023-01-13T10:56:33.223Z,18.81
2023-01-13T10:59:10.145Z,18.39
2023-01-13T11:01:38.361Z,18.07
2023-01-13T11:04:27.711Z,17.93
2023-01-13T11:06:57.169Z,17.41
2023-01-13T11:09:27.164Z,16.82
2023-01-13T11:11:57.273Z,16.28
2023-01-13T11:14:43.248Z,15.76
2023-01-13T11:17:30.059Z,15.22
2023-01-13T11:20:17.635Z,14.57
2023-01-13T11:22:53.090Z,13.95
2023-01-13T11:25:32.727Z,13.48
2023-01-13T11:28:16.310Z,13.01
2023-01-13T11:30:55.055Z,12.58
2023-01-13T11:33:38.264Z,12.27
2023-01-13T11:36:11.302Z,12.02
2023-01-13T11:38:47.898Z,11.67
2023-01-13T11:41:42.058Z,11.33
2023-01-13T11:44:09.897Z,11.07
2023-01-13T11:46:39.059Z,10.89
2023-01-13T11:49:09.124Z,10.71
2023-01-13T11:51:50.024Z,10.79
2023-01-13T11:54:40.369Z,11.13
2023-01-13T11:57:29.057Z,11.63
2023-01-13T12:00:08.878Z,12.27
2023-01-13T12:02:58.170Z,12.88
2023-01-13T12:05:34.374Z,13.45
2023-01-13T12:08:20.945Z,13.95
2023-01-13T12:11:59.878Z,14.43
2023-01-13T12:14:55.940Z,15.24
2023-01-13T12:17:47.358Z,15.87
2023-01-13T12:20:18.217Z,16.26
2023-01-13T12:22:49.163Z,16.41
2023-01-13T12:25:37.081Z,16.58
2023-01-13T12:28:19.497Z,16.91
2023-01-13T12:30:56.657Z,17.16
2023-01-13T12:33:47.133Z,17.33
2023-01-13T12:36:32.969Z,17.61
2023-01-13T12:39:15.326Z,17.82
2023-01-13T12:42:16.445Z,18.22
2023-01-13T12:45:12.254Z,18.95
2023-01-13T12:47:45.532Z,19.20
2023-01-13T12:50:22.892Z,19.21
2023-01-13T12:53:20.655Z,19.25
2023-01-13T12:56:22.204Z,19.18
2023-01-13T12:58:50.443Z,19.03
2023-01-13T13:01:35.431Z,18.92
2023-01-13T13:04:41.103Z,18.77
2023-01-13T13:07:14.288Z,18.60
2023-01-13T13:10:02.839Z,18.22
2023-01-13T13:12:49.465Z,18.05
2023-01-13T13:15:27.656Z,18.06
2023-01-13T13:18:01.721Z,17.90
2023-01-13T13:20:58.004Z,17.49
2023-01-13T13:23:37.029Z,17.23
2023-01-13T13:26:45.640Z,16.99
2023-01-13T13:29:19.427Z,16.69
2023-01-13T13:31:50.277Z,16.51
2023-01-13T13:34:27.225Z,16.33
2023-01-13T13:37:20.093Z,16.17
2023-01-13T13:40:06.847Z,16.00
2023-01-13T13:43:02.460Z,15.74
2023-01-13T13:45:50.096Z,15.30
2023-01-13T13:48:28.280Z,14.63
2023-01-13T13:51:02.184Z,14.11
2023-01-13T13:53:35.005Z,13.49
2023-01-13T13:56:14.945Z,12.83
2023-01-13T13:58:43.736Z,12.17
2023-01-13T14:01:25.968Z,11.58
2023-01-13T14:04:17.350Z,10.96
2023-01-13T14:06:55.442Z,10.31
2023-01-13T14:09:25.301Z,9.75
2023-01-13T14:12:01.845Z,9.32
2023-01-13T14:14:29.979Z,8.93
2023-01-13T14:16:58.816Z,8.59
2023-01-13T14:19:26.895Z,8.27
2023-01-13T14:21:55.007Z,7.98
2023-01-13T14:24:24.926Z,7.70
2023-01-13T14:26:53.294Z,7.44
2023-01-13T14:29:23.734Z,7.22
2023-01-13T14:31:53.732Z,7.01
2023-01-13T14:34:28.785Z,6.79
2023-01-13T14:37:00.691Z,6.60
2023-01-13T14:39:40.900Z,6.42
2023-01-13T14:42:17.142Z,6.20
2023-01-13T14:44:47.686Z,6.01
2023-01-13T14:47:29.021Z,5.87
2023-01-13T14:50:06.294Z,5.71
2023-01-13T14:52:37.448Z,5.57
2023-01-13T14:55:10.084Z,5.43
2023-01-13T14:57:41.470Z,5.30
2023-01-13T15:00:15.186Z,5.19
2023-01-13T15:02:49.362Z,5.08
2023-01-13T15:05:17.680Z,4.97
2023-01-13T15:07:54.747Z,4.87
2023-01-13T15:10:29.615Z,4.77
2023-01-13T15:13:00.529Z,4.68
2023-01-13T15:15:39.668Z,4.60
2023-01-13T15:18:15.121Z,4.53
2023-01-13T15:20:43.409Z,4.47
2023-01-13T15:23:12.197Z,4.42
2023-01-13T15:25:42.318Z,4.35
2023-01-13T15:28:16.602Z,4.29
2023-01-13T15:30:45.425Z,4.24
2023-01-13T15:33:14.652Z,4.19
2023-01-13T15:35:45.024Z,4.16
2023-01-13T15:38:16.043Z,4.11
2023-01-13T15:40:44.789Z,4.06
2023-01-13T15:43:40.707Z,4.04
2023-01-13T15:46:38.102Z,4.00
2023-01-13T15:49:23.232Z,3.97
2023-01-13T15:51:51.167Z,3.94
2023-01-13T15:54:22.791Z,3.91
2023-01-13T15:56:51.550Z,3.88
2023-01-13T15:59:23.765Z,3.86
2023-01-13T16:01:51.808Z,3.81
2023-01-13T16:04:19.730Z,3.81
2023-01-13T16:06:47.926Z,3.80
2023-01-13T16:09:16.912Z,3.80
2023-01-13T16:11:44.939Z,3.79
2023-01-13T16:14:12.849Z,3.79
2023-01-13T16:16:41.124Z,3.81
2023-01-13T16:19:12.192Z,3.80
2023-01-13T16:21:40.492Z,3.77
2023-01-13T16:24:08.393Z,3.75
2023-01-13T16:26:37.954Z,3.74
2023-01-13T16:29:07.368Z,3.72
2023-01-13T16:31:36.209Z,3.69
2023-01-13T16:34:05.572Z,3.67
2023-01-13T16:36:37.306Z,3.67
2023-01-13T16:39:19.241Z,3.65
2023-01-13T16:41:47.125Z,3.64
2023-01-13T16:44:15.291Z,3.61
2023-01-13T16:46:45.416Z,3.59
2023-01-13T16:49:16.003Z,3.58
2023-01-13T16:51:43.893Z,3.55
2023-01-13T16:54:12.228Z,3.53
2023-01-13T16:56:40.168Z,3.51
2023-01-13T16:59:16.065Z,3.50
2023-01-13T17:01:45.073Z,3.47
2023-01-13T17:04:18.685Z,3.45
2023-01-13T17:07:15.741Z,3.43
2023-01-13T17:09:44.049Z,3.41
2023-01-13T17:12:12.044Z,3.39
2023-01-13T17:14:40.157Z,3.37
2023-01-13T17:17:24.955Z,3.34
2023-01-13T17:19:54.113Z,3.32
2023-01-13T17:22:22.878Z,3.28
2023-01-13T17:24:50.931Z,3.25
2023-01-13T17:27:21.246Z,3.21
2023-01-13T17:29:50.380Z,3.19
2023-01-13T17:32:20.725Z,3.17
2023-01-13T17:34:49.365Z,3.14
2023-01-13T17:37:17.803Z,3.11
2023-01-13T17:39:46.835Z,3.05
2023-01-13T17:42:16.189Z,2.98
2023-01-13T17:44:44.186Z,2.90
2023-01-13T17:47:12.453Z,2.83
2023-01-13T17:49:40.349Z,2.75
2023-01-13T17:52:08.923Z,2.68
2023-01-13T17:54:36.922Z,2.58
2023-01-13T17:57:05.958Z,2.49
2023-01-13T17:59:33.850Z,2.38
2023-01-13T18:02:01.993Z,2.30
2023-01-13T18:04:31.111Z,2.21
2023-01-13T18:06:59.080Z,2.11
2023-01-13T18:09:27.047Z,2.02
2023-01-13T18:11:55.323Z,1.92
2023-01-13T18:14:23.295Z,1.83
2023-01-13T18:16:51.926Z,1.71
2023-01-13T18:19:38.803Z,1.62
2023-01-13T18:22:25.504Z,1.51
2023-01-13T18:25:12.107Z,1.42
2023-01-13T18:27:41.927Z,1.31
2023-01-13T18:30:12.094Z,1.24
2023-01-13T18:32:40.211Z,1.18
2023-01-13T18:35:10.480Z,1.10
2023-01-13T18:37:40.610Z,0.99
2023-01-13T18:40:11.689Z,0.89
2023-01-13T18:42:53.690Z,0.82
2023-01-13T18:45:31.073Z,0.78
2023-01-13T18:48:02.102Z,0.73
2023-01-13T18:50:31.817Z,0.69
2023-01-13T18:53:00.257Z,0.64
2023-01-13T18:55:29.118Z,0.59
2023-01-13T18:57:58.968Z,0.54
2023-01-13T19:00:27.441Z,0.50
2023-01-13T19:05:35.789Z,0.39
2023-01-13T19:08:04.665Z,0.35
2023-01-13T19:10:33.016Z,0.30
2023-01-13T19:13:01.668Z,0.25
2023-01-13T19:15:30.503Z,0.21
2023-01-13T19:17:59.062Z,0.17
2023-01-13T19:20:27.130Z,0.12
2023-01-13T19:22:55.424Z,0.08
2023-01-13T19:25:23.426Z,0.04
2023-01-13T19:27:51.386Z,0.02
2023-01-13T19:30:19.594Z,-0.02
2023-01-13T19:32:47.497Z,-0.04
2023-01-13T19:35:18.203Z,-0.07
2023-01-13T19:37:46.209Z,-0.09
2023-01-13T19:40:14.369Z,-0.11
2023-01-13T19:43:03.948Z,-0.14
2023-01-13T19:45:33.815Z,-0.17
2023-01-13T19:48:04.827Z,-0.20
2023-01-13T19:50:37.477Z,-0.22
2023-01-13T19:53:06.475Z,-0.25
2023-01-13T19:55:34.656Z,-0.27
2023-01-13T19:58:03.615Z,-0.29
2023-01-13T20:00:31.816Z,-0.31
2023-01-13T20:03:03.527Z,-0.34
2023-01-13T20:05:31.647Z,-0.36
2023-01-13T20:07:59.801Z,-0.39
2023-01-13T20:10:30.533Z,-0.43
2023-01-13T20:12:59.347Z,-0.46
2023-01-13T20:15:27.758Z,-0.49
2023-01-13T20:17:58.068Z,-0.52
2023-01-13T20:20:27.443Z,-0.57
2023-01-13T20:22:55.529Z,-0.61
2023-01-13T20:25:23.857Z,-0.63
2023-01-13T20:27:52.979Z,-0.66
2023-01-13T20:30:21.079Z,-0.69
2023-01-13T20:32:48.943Z,-0.71
2023-01-13T20:35:17.202Z,-0.73
2023-01-13T20:37:45.196Z,-0.76
2023-01-13T20:40:15.781Z,-0.79
2023-01-13T20:42:46.754Z,-0.81
2023-01-13T20:45:20.055Z,-0.84
2023-01-13T20:47:48.189Z,-0.87
2023-01-13T20:50:17.529Z,-0.88
2023-01-13T20:52:45.713Z,-0.92
2023-01-13T20:55:14.254Z,-0.93
2023-01-13T20:57:42.360Z,-0.92
2023-01-13T21:00:13.958Z,-0.89
2023-01-13T21:02:41.988Z,-0.85
2023-01-13T21:05:10.740Z,-0.80
2023-01-13T21:07:38.853Z,-0.75
2023-01-13T21:10:07.234Z,-0.70
2023-01-13T21:12:53.801Z,-0.67
2023-01-13T21:15:22.739Z,-0.60
2023-01-13T21:18:10.347Z,-0.56
2023-01-13T21:20:39.243Z,-0.52
2023-01-13T21:23:07.941Z,-0.46
2023-01-13T21:25:39.477Z,-0.42
2023-01-13T21:28:11.258Z,-0.37
2023-01-13T21:30:40.210Z,-0.33
2023-01-13T21:33:12.091Z,-0.29
2023-01-13T21:35:40.379Z,-0.25
2023-01-13T21:38:10.829Z,-0.22
2023-01-13T21:40:38.871Z,-0.18
2023-01-13T21:43:29.618Z,-0.15
2023-01-13T21:46:16.271Z,-0.12
2023-01-13T21:48:44.194Z,-0.08
2023-01-13T21:51:12.114Z,-0.06
2023-01-13T21:53:40.396Z,-0.04
2023-01-13T21:56:08.212Z,-0.02
2023-01-13T21:58:38.890Z,0.00
2023-01-13T22:01:07.154Z,0.01
2023-01-13T22:03:55.690Z,0.01
2023-01-13T22:06:24.578Z,0.01
2023-01-13T22:08:55.503Z,0.01
2023-01-13T22:11:23.390Z,0.02
2023-01-13T22:14:07.369Z,0.03
2023-01-13T22:16:42.099Z,0.05
2023-01-13T22:19:10.778Z,0.04
2023-01-13T22:21:39.528Z,0.05
2023-01-13T22:24:08.252Z,0.08
2023-01-13T22:26:37.304Z,0.09
2023-01-13T22:29:05.813Z,0.11
2023-01-13T22:31:34.157Z,0.11
2023-01-13T22:34:02.180Z,0.11
2023-01-13T22:36:30.148Z,0.12
2023-01-13T22:39:00.611Z,0.10
2023-01-13T22:41:28.850Z,0.09
2023-01-13T22:43:57.024Z,0.08
2023-01-13T22:46:24.997Z,0.08
2023-01-13T22:48:54.816Z,0.09
2023-01-13T22:51:23.079Z,0.08
2023-01-13T22:53:51.355Z,0.09
2023-01-13T22:56:21.685Z,0.10
2023-01-13T22:58:57.340Z,0.12
2023-01-13T23:01:27.816Z,0.12
2023-01-13T23:03:56.619Z,0.14
2023-01-13T23:06:26.884Z,0.14
2023-01-13T23:08:55.628Z,0.12
2023-01-13T23:11:26.897Z,0.11
2023-01-13T23:14:00.691Z,0.10
2023-01-13T23:16:30.540Z,0.09
2023-01-13T23:18:58.607Z,0.10
2023-01-13T23:21:29.938Z,0.11
2023-01-13T23:23:58.958Z,0.10
2023-01-13T23:26:28.119Z,0.10
2023-01-13T23:29:05.651Z,0.09
2023-01-13T23:31:34.630Z,0.10
2023-01-13T23:34:02.904Z,0.09
2023-01-13T23:36:31.589Z,0.08
2023-01-13T23:38:59.821Z,0.05
2023-01-13T23:41:28.416Z,0.01
2023-01-13T23:44:01.032Z,-0.03
2023-01-13T23:46:31.451Z,-0.06
2023-01-13T23:48:59.664Z,-0.07
2023-01-13T23:51:30.109Z,-0.08
2023-01-13T23:53:59.291Z,-0.11
2023-01-13T23:56:30.158Z,-0.13
2023-01-13T23:58:58.875Z,-0.13
